sensor_id;sensor_type;location;lat;lon;timestamp;pressure;altitude;pressure_sealevel;temperature;humidity
41967;BME280;27656;53.068;8.818;2024-03-06T00:02:20;101981.34;;;3.87;100.00
41967;BME280;27656;53.068;8.818;2024-03-06T00:04:47;101987.59;;;3.85;100.00
41967;BME280;27656;53.068;8.818;2024-03-06T00:07:13;101997.94;;;3.86;100.00
41967;BME280;27656;53.068;8.818;2024-03-06T00:09:40;101994.88;;;3.94;100.00
41967;BME280;27656;53.068;8.818;2024-03-06T00:12:07;101994.81;;;3.95;100.00
41967;BME280;27656;53.068;8.818;2024-03-06T00:14:34;101995.50;;;3.99;100.00
41967;BME280;27656;53.068;8.818;2024-03-06T00:17:03;101994.81;;;3.95;100.00
41967;BME280;27656;53.068;8.818;2024-03-06T00:19:31;101994.75;;;3.97;100.00
41967;BME280;27656;53.068;8.818;2024-03-06T00:21:57;101988.00;;;3.93;100.00
41967;BME280;27656;53.068;8.818;2024-03-06T00:24:25;102000.47;;;3.88;100.00
41967;BME280;27656;53.068;8.818;2024-03-06T00:26:51;102002.91;;;3.91;100.00
41967;BME280;27656;53.068;8.818;2024-03-06T00:29:18;101996.66;;;3.93;100.00
41967;BME280;27656;53.068;8.818;2024-03-06T00:31:45;101996.66;;;3.93;100.00
41967;BME280;27656;53.068;8.818;2024-03-06T00:34:12;102002.72;;;3.94;100.00
41967;BME280;27656;53.068;8.818;2024-03-06T00:36:43;102006.78;;;3.99;100.00
41967;BME280;27656;53.068;8.818;2024-03-06T00:39:10;102007.03;;;3.95;100.00
41967;BME280;27656;53.068;8.818;2024-03-06T00:41:37;102011.44;;;3.94;100.00
41967;BME280;27656;53.068;8.818;2024-03-06T00:44:05;102004.59;;;3.92;100.00
41967;BME280;27656;53.068;8.818;2024-03-06T00:46:32;102007.88;;;3.95;100.00
41967;BME280;27656;53.068;8.818;2024-03-06T00:48:58;102010.41;;;3.97;100.00
41967;BME280;27656;53.068;8.818;2024-03-06T00:51:25;102015.97;;;3.91;100.00
41967;BME280;27656;53.068;8.818;2024-03-06T00:54:06;102022.78;;;3.93;100.00
41967;BME280;27656;53.068;8.818;2024-03-06T00:56:37;102025.41;;;3.93;100.00
41967;BME280;27656;53.068;8.818;2024-03-06T00:59:04;102019.75;;;4.01;100.00
41967;BME280;27656;53.068;8.818;2024-03-06T01:01:31;102033.25;;;3.93;100.00
41967;BME280;27656;53.068;8.818;2024-03-06T01:03:57;102034.19;;;3.92;100.00
41967;BME280;27656;53.068;8.818;2024-03-06T01:06:24;102036.78;;;3.92;100.00
41967;BME280;27656;53.068;8.818;2024-03-06T01:08:50;102040.31;;;3.91;100.00
41967;BME280;27656;53.068;8.818;2024-03-06T01:11:17;102044.72;;;3.91;100.00
41967;BME280;27656;53.068;8.818;2024-03-06T01:13:43;102040.66;;;3.85;100.00
41967;BME280;27656;53.068;8.818;2024-03-06T01:16:10;102043.56;;;3.96;100.00
41967;BME280;27656;53.068;8.818;2024-03-06T01:18:36;102050.94;;;3.88;100.00
41967;BME280;27656;53.068;8.818;2024-03-06T01:21:03;102043.78;;;3.76;100.00
41967;BME280;27656;53.068;8.818;2024-03-06T01:23:29;102049.59;;;3.81;100.00
41967;BME280;27656;53.068;8.818;2024-03-06T01:25:56;102050.66;;;3.77;100.00
41967;BME280;27656;53.068;8.818;2024-03-06T01:28:22;102045.44;;;3.77;100.00
41967;BME280;27656;53.068;8.818;2024-03-06T01:30:49;102047.28;;;3.75;100.00
41967;BME280;27656;53.068;8.818;2024-03-06T01:33:15;102045.56;;;3.75;100.00
41967;BME280;27656;53.068;8.818;2024-03-06T01:35:42;102050.09;;;3.72;100.00
41967;BME280;27656;53.068;8.818;2024-03-06T01:38:08;102054.47;;;3.71;100.00
41967;BME280;27656;53.068;8.818;2024-03-06T01:40:37;102052.78;;;3.70;100.00
41967;BME280;27656;53.068;8.818;2024-03-06T01:43:03;102056.91;;;3.74;100.00
41967;BME280;27656;53.068;8.818;2024-03-06T01:45:31;102059.19;;;3.80;100.00
41967;BME280;27656;53.068;8.818;2024-03-06T01:47:59;102052.28;;;3.79;100.00
41967;BME280;27656;53.068;8.818;2024-03-06T01:50:25;102055.41;;;3.86;100.00
41967;BME280;27656;53.068;8.818;2024-03-06T01:52:52;102064.25;;;3.83;100.00
41967;BME280;27656;53.068;8.818;2024-03-06T01:55:19;102056.16;;;3.72;100.00
41967;BME280;27656;53.068;8.818;2024-03-06T01:57:45;102062.59;;;3.82;100.00
41967;BME280;27656;53.068;8.818;2024-03-06T02:00:12;102067.13;;;3.79;100.00
41967;BME280;27656;53.068;8.818;2024-03-06T02:02:41;102063.84;;;3.75;100.00
41967;BME280;27656;53.068;8.818;2024-03-06T02:05:08;102060.28;;;3.76;100.00
41967;BME280;27656;53.068;8.818;2024-03-06T02:07:38;102056.66;;;3.79;100.00
41967;BME280;27656;53.068;8.818;2024-03-06T02:10:07;102055.81;;;3.78;100.00
41967;BME280;27656;53.068;8.818;2024-03-06T02:12:36;102058.19;;;3.83;100.00
41967;BME280;27656;53.068;8.818;2024-03-06T02:15:03;102067.47;;;3.89;100.00
41967;BME280;27656;53.068;8.818;2024-03-06T02:17:30;102060.72;;;3.85;100.00
41967;BME280;27656;53.068;8.818;2024-03-06T02:19:57;102060.50;;;3.89;100.00
41967;BME280;27656;53.068;8.818;2024-03-06T02:22:26;102062.41;;;3.86;100.00
41967;BME280;27656;53.068;8.818;2024-03-06T02:24:53;102059.03;;;3.83;100.00
41967;BME280;27656;53.068;8.818;2024-03-06T02:27:19;102059.19;;;3.80;100.00
41967;BME280;27656;53.068;8.818;2024-03-06T02:29:46;102054.16;;;3.77;100.00
41967;BME280;27656;53.068;8.818;2024-03-06T02:32:13;102051.38;;;3.80;100.00
41967;BME280;27656;53.068;8.818;2024-03-06T02:34:44;102057.09;;;3.71;100.00
41967;BME280;27656;53.068;8.818;2024-03-06T02:37:11;102054.28;;;3.74;100.00
41967;BME280;27656;53.068;8.818;2024-03-06T02:39:37;102055.47;;;3.69;100.00
41967;BME280;27656;53.068;8.818;2024-03-06T02:42:04;102061.28;;;3.74;100.00
41967;BME280;27656;53.068;8.818;2024-03-06T02:44:30;102060.63;;;3.70;100.00
41967;BME280;27656;53.068;8.818;2024-03-06T02:46:57;102058.16;;;3.67;100.00
41967;BME280;27656;53.068;8.818;2024-03-06T02:49:23;102055.91;;;3.61;100.00
41967;BME280;27656;53.068;8.818;2024-03-06T02:51:50;102056.66;;;3.63;100.00
41967;BME280;27656;53.068;8.818;2024-03-06T02:54:17;102053.13;;;3.64;100.00
41967;BME280;27656;53.068;8.818;2024-03-06T02:56:44;102046.53;;;3.57;100.00
41967;BME280;27656;53.068;8.818;2024-03-06T02:59:10;102046.59;;;3.55;100.00
41967;BME280;27656;53.068;8.818;2024-03-06T03:01:37;102039.22;;;3.64;100.00
41967;BME280;27656;53.068;8.818;2024-03-06T03:04:05;102046.88;;;3.67;100.00
41967;BME280;27656;53.068;8.818;2024-03-06T03:06:33;102053.78;;;3.68;100.00
41967;BME280;27656;53.068;8.818;2024-03-06T03:09:01;102041.13;;;3.60;100.00
41967;BME280;27656;53.068;8.818;2024-03-06T03:11:27;102052.03;;;3.68;100.00
41967;BME280;27656;53.068;8.818;2024-03-06T03:13:54;102046.81;;;3.68;100.00
41967;BME280;27656;53.068;8.818;2024-03-06T03:16:20;102049.72;;;3.62;100.00
41967;BME280;27656;53.068;8.818;2024-03-06T03:18:47;102052.16;;;3.65;100.00
41967;BME280;27656;53.068;8.818;2024-03-06T03:21:14;102050.22;;;3.53;100.00
41967;BME280;27656;53.068;8.818;2024-03-06T03:23:41;102053.66;;;3.53;100.00
41967;BME280;27656;53.068;8.818;2024-03-06T03:26:08;102054.06;;;3.46;100.00
41967;BME280;27656;53.068;8.818;2024-03-06T03:28:38;102053.31;;;3.44;100.00
41967;BME280;27656;53.068;8.818;2024-03-06T03:31:09;102057.22;;;3.52;100.00
41967;BME280;27656;53.068;8.818;2024-03-06T03:33:40;102062.00;;;3.44;100.00
41967;BME280;27656;53.068;8.818;2024-03-06T03:36:07;102053.66;;;3.53;100.00
41967;BME280;27656;53.068;8.818;2024-03-06T03:38:35;102058.56;;;3.59;100.00
41967;BME280;27656;53.068;8.818;2024-03-06T03:41:08;102062.44;;;3.52;100.00
41967;BME280;27656;53.068;8.818;2024-03-06T03:43:35;102056.63;;;3.47;100.00
41967;BME280;27656;53.068;8.818;2024-03-06T03:46:02;102058.81;;;3.55;100.00
41967;BME280;27656;53.068;8.818;2024-03-06T03:48:31;102069.56;;;3.49;100.00
41967;BME280;27656;53.068;8.818;2024-03-06T03:50:57;102070.56;;;3.46;100.00
41967;BME280;27656;53.068;8.818;2024-03-06T03:53:24;102075.06;;;3.44;100.00
41967;BME280;27656;53.068;8.818;2024-03-06T03:55:50;102071.69;;;3.42;100.00
41967;BME280;27656;53.068;8.818;2024-03-06T03:58:17;102083.63;;;3.46;100.00
41967;BME280;27656;53.068;8.818;2024-03-06T04:00:44;102088.47;;;3.54;100.00
41967;BME280;27656;53.068;8.818;2024-03-06T04:03:10;102089.91;;;3.59;100.00
41967;BME280;27656;53.068;8.818;2024-03-06T04:05:37;102090.75;;;3.60;100.00
41967;BME280;27656;53.068;8.818;2024-03-06T04:08:04;102089.31;;;3.54;100.00
41967;BME280;27656;53.068;8.818;2024-03-06T04:10:32;102092.09;;;3.51;100.00
41967;BME280;27656;53.068;8.818;2024-03-06T04:13:00;102103.38;;;3.52;100.00
41967;BME280;27656;53.068;8.818;2024-03-06T04:15:26;102105.38;;;3.47;100.00
41967;BME280;27656;53.068;8.818;2024-03-06T04:17:53;102107.47;;;3.40;100.00
41967;BME280;27656;53.068;8.818;2024-03-06T04:20:20;102112.91;;;3.35;100.00
41967;BME280;27656;53.068;8.818;2024-03-06T04:22:46;102112.16;;;3.33;100.00
41967;BME280;27656;53.068;8.818;2024-03-06T04:25:14;102119.16;;;3.33;100.00
41967;BME280;27656;53.068;8.818;2024-03-06T04:27:40;102118.75;;;3.40;100.00
41967;BME280;27656;53.068;8.818;2024-03-06T04:30:07;102120.75;;;3.35;100.00
41967;BME280;27656;53.068;8.818;2024-03-06T04:32:34;102121.03;;;3.29;100.00
41967;BME280;27656;53.068;8.818;2024-03-06T04:35:00;102128.09;;;3.27;100.00
41967;BME280;27656;53.068;8.818;2024-03-06T04:37:27;102124.81;;;3.24;100.00
41967;BME280;27656;53.068;8.818;2024-03-06T04:39:56;102120.50;;;3.23;100.00
41967;BME280;27656;53.068;8.818;2024-03-06T04:42:22;102122.91;;;3.10;100.00
41967;BME280;27656;53.068;8.818;2024-03-06T04:44:48;102123.97;;;3.06;100.00
41967;BME280;27656;53.068;8.818;2024-03-06T04:47:15;102122.44;;;3.02;100.00
41967;BME280;27656;53.068;8.818;2024-03-06T04:49:41;102136.50;;;2.99;100.00
41967;BME280;27656;53.068;8.818;2024-03-06T04:52:09;102128.66;;;2.99;100.00
41967;BME280;27656;53.068;8.818;2024-03-06T04:54:35;102134.16;;;2.93;100.00
41967;BME280;27656;53.068;8.818;2024-03-06T04:57:02;102134.16;;;2.93;100.00
41967;BME280;27656;53.068;8.818;2024-03-06T04:59:29;102139.84;;;2.84;100.00
41967;BME280;27656;53.068;8.818;2024-03-06T05:01:55;102152.41;;;2.75;100.00
41967;BME280;27656;53.068;8.818;2024-03-06T05:04:22;102153.31;;;2.74;100.00
41967;BME280;27656;53.068;8.818;2024-03-06T05:07:05;102160.31;;;2.74;100.00
41967;BME280;27656;53.068;8.818;2024-03-06T05:09:50;102161.13;;;2.74;100.00
41967;BME280;27656;53.068;8.818;2024-03-06T05:12:33;102165.78;;;2.68;100.00
41967;BME280;27656;53.068;8.818;2024-03-06T05:15:18;102165.06;;;2.66;100.00
41967;BME280;27656;53.068;8.818;2024-03-06T05:18:03;102166.16;;;2.60;100.00
41967;BME280;27656;53.068;8.818;2024-03-06T05:20:47;102173.91;;;2.62;100.00
41967;BME280;27656;53.068;8.818;2024-03-06T05:23:31;102167.00;;;2.61;100.00
41967;BME280;27656;53.068;8.818;2024-03-06T05:26:15;102173.16;;;2.60;100.00
41967;BME280;27656;53.068;8.818;2024-03-06T05:28:59;102176.38;;;2.65;100.00
41967;BME280;27656;53.068;8.818;2024-03-06T05:31:43;102177.44;;;2.61;100.00
41967;BME280;27656;53.068;8.818;2024-03-06T05:34:27;102185.91;;;2.66;100.00
41967;BME280;27656;53.068;8.818;2024-03-06T05:37:11;102192.53;;;2.73;100.00
41967;BME280;27656;53.068;8.818;2024-03-06T05:39:55;102189.03;;;2.72;100.00
41967;BME280;27656;53.068;8.818;2024-03-06T05:42:39;102197.59;;;2.76;100.00
41967;BME280;27656;53.068;8.818;2024-03-06T05:45:23;102200.09;;;2.78;100.00
41967;BME280;27656;53.068;8.818;2024-03-06T05:48:07;102201.03;;;2.76;100.00
41967;BME280;27656;53.068;8.818;2024-03-06T05:50:52;102209.91;;;2.72;100.00
41967;BME280;27656;53.068;8.818;2024-03-06T05:53:39;102205.00;;;2.66;100.00
41967;BME280;27656;53.068;8.818;2024-03-06T05:56:26;102213.94;;;2.61;100.00
41967;BME280;27656;53.068;8.818;2024-03-06T05:59:10;102224.03;;;2.68;100.00
41967;BME280;27656;53.068;8.818;2024-03-06T06:01:36;102222.13;;;2.72;100.00
41967;BME280;27656;53.068;8.818;2024-03-06T06:04:03;102223.81;;;2.73;100.00
41967;BME280;27656;53.068;8.818;2024-03-06T06:06:33;102223.72;;;2.74;100.00
41967;BME280;27656;53.068;8.818;2024-03-06T06:09:00;102227.53;;;2.67;100.00
41967;BME280;27656;53.068;8.818;2024-03-06T06:11:26;102229.31;;;2.67;100.00
41967;BME280;27656;53.068;8.818;2024-03-06T06:13:53;102233.53;;;2.69;100.00
41967;BME280;27656;53.068;8.818;2024-03-06T06:16:19;102233.53;;;2.69;100.00
41967;BME280;27656;53.068;8.818;2024-03-06T06:18:46;102241.09;;;2.75;100.00
41967;BME280;27656;53.068;8.818;2024-03-06T06:21:12;102251.31;;;2.80;100.00
41967;BME280;27656;53.068;8.818;2024-03-06T06:23:39;102250.31;;;2.83;100.00
41967;BME280;27656;53.068;8.818;2024-03-06T06:26:05;102247.50;;;2.87;100.00
41967;BME280;27656;53.068;8.818;2024-03-06T06:28:32;102257.00;;;2.88;100.00
41967;BME280;27656;53.068;8.818;2024-03-06T06:30:58;102271.22;;;3.00;100.00
41967;BME280;27656;53.068;8.818;2024-03-06T06:33:25;102254.63;;;3.01;100.00
41967;BME280;27656;53.068;8.818;2024-03-06T06:35:51;102258.44;;;3.13;100.00
41967;BME280;27656;53.068;8.818;2024-03-06T06:38:18;102258.81;;;3.05;100.00
41967;BME280;27656;53.068;8.818;2024-03-06T06:40:44;102263.34;;;3.02;100.00
41967;BME280;27656;53.068;8.818;2024-03-06T06:43:11;102264.75;;;3.09;100.00
41967;BME280;27656;53.068;8.818;2024-03-06T06:45:37;102264.09;;;3.04;100.00
41967;BME280;27656;53.068;8.818;2024-03-06T06:48:04;102264.88;;;3.06;100.00
41967;BME280;27656;53.068;8.818;2024-03-06T06:50:31;102263.13;;;3.06;100.00
41967;BME280;27656;53.068;8.818;2024-03-06T06:53:00;102271.78;;;3.07;100.00
41967;BME280;27656;53.068;8.818;2024-03-06T06:55:26;102271.47;;;3.13;100.00
41967;BME280;27656;53.068;8.818;2024-03-06T06:57:53;102283.25;;;3.22;100.00
41967;BME280;27656;53.068;8.818;2024-03-06T07:00:20;102286.09;;;3.17;100.00
41967;BME280;27656;53.068;8.818;2024-03-06T07:02:49;102290.31;;;3.19;100.00
41967;BME280;27656;53.068;8.818;2024-03-06T07:05:16;102291.50;;;3.31;100.00
41967;BME280;27656;53.068;8.818;2024-03-06T07:07:42;102286.47;;;3.27;100.00
41967;BME280;27656;53.068;8.818;2024-03-06T07:10:09;102289.47;;;3.19;100.00
41967;BME280;27656;53.068;8.818;2024-03-06T07:12:36;102289.03;;;3.28;100.00
41967;BME280;27656;53.068;8.818;2024-03-06T07:15:03;102301.75;;;3.17;100.00
41967;BME280;27656;53.068;8.818;2024-03-06T07:17:30;102315.09;;;3.11;100.00
41967;BME280;27656;53.068;8.818;2024-03-06T07:19:57;102309.97;;;3.27;100.00
41967;BME280;27656;53.068;8.818;2024-03-06T07:22:23;102317.91;;;3.25;100.00
41967;BME280;27656;53.068;8.818;2024-03-06T07:24:50;102316.91;;;3.28;100.00
41967;BME280;27656;53.068;8.818;2024-03-06T07:27:16;102324.31;;;3.37;100.00
41967;BME280;27656;53.068;8.818;2024-03-06T07:29:43;102330.94;;;3.25;100.00
41967;BME280;27656;53.068;8.818;2024-03-06T07:32:10;102331.91;;;3.23;100.00
41967;BME280;27656;53.068;8.818;2024-03-06T07:34:37;102337.56;;;3.32;100.00
41967;BME280;27656;53.068;8.818;2024-03-06T07:37:04;102339.66;;;3.43;100.00
41967;BME280;27656;53.068;8.818;2024-03-06T07:39:31;102339.97;;;3.37;100.00
41967;BME280;27656;53.068;8.818;2024-03-06T07:41:58;102340.09;;;3.34;100.00
41967;BME280;27656;53.068;8.818;2024-03-06T07:44:25;102349.25;;;3.43;100.00
41967;BME280;27656;53.068;8.818;2024-03-06T07:46:52;102345.06;;;3.57;100.00
41967;BME280;27656;53.068;8.818;2024-03-06T07:49:20;102346.94;;;3.73;100.00
41967;BME280;27656;53.068;8.818;2024-03-06T07:51:48;102351.22;;;3.74;100.00
41967;BME280;27656;53.068;8.818;2024-03-06T07:54:14;102354.13;;;3.68;100.00
41967;BME280;27656;53.068;8.818;2024-03-06T07:56:41;102355.00;;;3.68;100.00
41967;BME280;27656;53.068;8.818;2024-03-06T07:59:08;102354.47;;;3.79;100.00
41967;BME280;27656;53.068;8.818;2024-03-06T08:01:35;102359.47;;;3.83;100.00
41967;BME280;27656;53.068;8.818;2024-03-06T08:04:01;102360.09;;;3.89;100.00
41967;BME280;27656;53.068;8.818;2024-03-06T08:06:28;102364.00;;;3.97;100.00
41967;BME280;27656;53.068;8.818;2024-03-06T08:08:55;102362.84;;;4.03;100.00
41967;BME280;27656;53.068;8.818;2024-03-06T08:11:25;102370.78;;;4.01;100.00
41967;BME280;27656;53.068;8.818;2024-03-06T08:13:57;102373.53;;;3.98;100.00
41967;BME280;27656;53.068;8.818;2024-03-06T08:16:24;102373.78;;;4.11;100.00
41967;BME280;27656;53.068;8.818;2024-03-06T08:18:51;102379.84;;;4.12;100.00
41967;BME280;27656;53.068;8.818;2024-03-06T08:21:17;102383.56;;;4.25;100.00
41967;BME280;27656;53.068;8.818;2024-03-06T08:23:45;102383.78;;;4.20;100.00
41967;BME280;27656;53.068;8.818;2024-03-06T08:26:13;102381.94;;;4.22;100.00
41967;BME280;27656;53.068;8.818;2024-03-06T08:28:40;102388.94;;;4.39;100.00
41967;BME280;27656;53.068;8.818;2024-03-06T08:31:06;102389.91;;;4.54;100.00
41967;BME280;27656;53.068;8.818;2024-03-06T08:33:34;102394.56;;;4.65;100.00
41967;BME280;27656;53.068;8.818;2024-03-06T08:36:01;102395.75;;;4.59;100.00
41967;BME280;27656;53.068;8.818;2024-03-06T08:38:28;102399.66;;;4.68;100.00
41967;BME280;27656;53.068;8.818;2024-03-06T08:40:55;102397.16;;;4.82;100.00
41967;BME280;27656;53.068;8.818;2024-03-06T08:43:21;102406.16;;;4.94;100.00
41967;BME280;27656;53.068;8.818;2024-03-06T08:45:48;102409.84;;;4.90;100.00
41967;BME280;27656;53.068;8.818;2024-03-06T08:48:15;102411.44;;;4.93;100.00
41967;BME280;27656;53.068;8.818;2024-03-06T08:50:41;102415.47;;;4.82;100.00
41967;BME280;27656;53.068;8.818;2024-03-06T08:53:08;102413.16;;;5.09;100.00
41967;BME280;27656;53.068;8.818;2024-03-06T08:55:36;102411.53;;;5.24;100.00
41967;BME280;27656;53.068;8.818;2024-03-06T08:58:02;102409.66;;;5.42;100.00
41967;BME280;27656;53.068;8.818;2024-03-06T09:00:29;102416.69;;;5.58;100.00
41967;BME280;27656;53.068;8.818;2024-03-06T09:02:55;102418.94;;;5.48;100.00
41967;BME280;27656;53.068;8.818;2024-03-06T09:05:22;102419.38;;;5.72;100.00
41967;BME280;27656;53.068;8.818;2024-03-06T09:07:48;102420.16;;;5.88;100.00
41967;BME280;27656;53.068;8.818;2024-03-06T09:10:15;102425.44;;;6.04;100.00
41967;BME280;27656;53.068;8.818;2024-03-06T09:12:41;102423.75;;;6.03;100.00
41967;BME280;27656;53.068;8.818;2024-03-06T09:15:08;102429.84;;;6.34;100.00
41967;BME280;27656;53.068;8.818;2024-03-06T09:17:35;102427.31;;;6.32;100.00
41967;BME280;27656;53.068;8.818;2024-03-06T09:20:02;102426.16;;;6.22;100.00
41967;BME280;27656;53.068;8.818;2024-03-06T09:22:40;102432.94;;;6.41;100.00
41967;BME280;27656;53.068;8.818;2024-03-06T09:25:07;102437.38;;;6.54;100.00
41967;BME280;27656;53.068;8.818;2024-03-06T09:27:34;102431.97;;;6.57;100.00
41967;BME280;27656;53.068;8.818;2024-03-06T09:30:00;102438.50;;;6.50;100.00
41967;BME280;27656;53.068;8.818;2024-03-06T09:32:27;102440.56;;;6.59;100.00
41967;BME280;27656;53.068;8.818;2024-03-06T09:34:54;102442.84;;;6.66;100.00
41967;BME280;27656;53.068;8.818;2024-03-06T09:37:20;102442.31;;;6.45;100.00
41967;BME280;27656;53.068;8.818;2024-03-06T09:39:46;102448.78;;;6.39;100.00
41967;BME280;27656;53.068;8.818;2024-03-06T09:42:14;102444.41;;;6.54;100.00
41967;BME280;27656;53.068;8.818;2024-03-06T09:44:41;102452.22;;;6.84;100.00
41967;BME280;27656;53.068;8.818;2024-03-06T09:47:12;102454.59;;;7.03;100.00
41967;BME280;27656;53.068;8.818;2024-03-06T09:49:41;102453.06;;;6.99;100.00
41967;BME280;27656;53.068;8.818;2024-03-06T09:52:09;102451.69;;;6.93;100.00
41967;BME280;27656;53.068;8.818;2024-03-06T09:54:37;102452.31;;;7.11;100.00
41967;BME280;27656;53.068;8.818;2024-03-06T09:57:05;102457.41;;;7.00;100.00
41967;BME280;27656;53.068;8.818;2024-03-06T09:59:32;102457.38;;;6.86;100.00
41967;BME280;27656;53.068;8.818;2024-03-06T10:02:00;102457.09;;;7.05;100.00
41967;BME280;27656;53.068;8.818;2024-03-06T10:04:32;102469.41;;;7.18;100.00
41967;BME280;27656;53.068;8.818;2024-03-06T10:07:00;102462.97;;;7.65;100.00
41967;BME280;27656;53.068;8.818;2024-03-06T10:09:29;102468.66;;;7.99;100.00
41967;BME280;27656;53.068;8.818;2024-03-06T10:11:57;102465.44;;;8.08;100.00
41967;BME280;27656;53.068;8.818;2024-03-06T10:14:28;102472.09;;;8.41;100.00
41967;BME280;27656;53.068;8.818;2024-03-06T10:16:56;102470.66;;;8.63;100.00
41967;BME280;27656;53.068;8.818;2024-03-06T10:19:28;102470.44;;;8.66;100.00
41967;BME280;27656;53.068;8.818;2024-03-06T10:21:56;102465.72;;;8.84;100.00
41967;BME280;27656;53.068;8.818;2024-03-06T10:24:26;102472.66;;;8.85;100.00
41967;BME280;27656;53.068;8.818;2024-03-06T10:26:58;102472.44;;;8.62;100.00
41967;BME280;27656;53.068;8.818;2024-03-06T10:29:29;102470.25;;;8.69;100.00
41967;BME280;27656;53.068;8.818;2024-03-06T10:31:57;102469.81;;;8.75;100.00
41967;BME280;27656;53.068;8.818;2024-03-06T10:34:26;102471.31;;;8.79;100.00
41967;BME280;27656;53.068;8.818;2024-03-06T10:36:57;102468.25;;;8.73;100.00
41967;BME280;27656;53.068;8.818;2024-03-06T10:39:24;102469.88;;;8.08;100.00
41967;BME280;27656;53.068;8.818;2024-03-06T10:41:52;102462.53;;;7.86;100.00
41967;BME280;27656;53.068;8.818;2024-03-06T10:44:22;102459.34;;;8.08;100.00
41967;BME280;27656;53.068;8.818;2024-03-06T10:47:00;102459.72;;;8.02;100.00
41967;BME280;27656;53.068;8.818;2024-03-06T10:49:28;102463.56;;;8.11;100.00
41967;BME280;27656;53.068;8.818;2024-03-06T10:52:03;102468.75;;;8.12;100.00
41967;BME280;27656;53.068;8.818;2024-03-06T10:54:34;102467.59;;;8.16;100.00
41967;BME280;27656;53.068;8.818;2024-03-06T10:57:03;102472.59;;;8.06;100.00
41967;BME280;27656;53.068;8.818;2024-03-06T10:59:30;102463.66;;;8.09;100.00
41967;BME280;27656;53.068;8.818;2024-03-06T11:02:00;102472.25;;;7.98;100.00
41967;BME280;27656;53.068;8.818;2024-03-06T11:04:29;102465.31;;;7.97;100.00
41967;BME280;27656;53.068;8.818;2024-03-06T11:06:57;102479.56;;;8.07;100.00
41967;BME280;27656;53.068;8.818;2024-03-06T11:09:26;102482.81;;;8.11;100.00
41967;BME280;27656;53.068;8.818;2024-03-06T11:11:55;102477.31;;;8.28;100.00
41967;BME280;27656;53.068;8.818;2024-03-06T11:14:23;102479.94;;;8.28;100.00
41967;BME280;27656;53.068;8.818;2024-03-06T11:17:03;102482.63;;;8.41;100.00
41967;BME280;27656;53.068;8.818;2024-03-06T11:19:31;102481.72;;;8.28;100.00
41967;BME280;27656;53.068;8.818;2024-03-06T11:21:58;102491.88;;;8.47;100.00
41967;BME280;27656;53.068;8.818;2024-03-06T11:24:33;102490.22;;;8.59;100.00
41967;BME280;27656;53.068;8.818;2024-03-06T11:27:01;102483.06;;;8.48;100.00
41967;BME280;27656;53.068;8.818;2024-03-06T11:30:04;102489.38;;;8.45;100.00
41967;BME280;27656;53.068;8.818;2024-03-06T11:32:37;102494.13;;;8.40;100.00
41967;BME280;27656;53.068;8.818;2024-03-06T11:35:05;102492.50;;;8.38;100.00
41967;BME280;27656;53.068;8.818;2024-03-06T11:37:34;102502.16;;;8.37;100.00
41967;BME280;27656;53.068;8.818;2024-03-06T11:40:01;102498.53;;;8.25;100.00
41967;BME280;27656;53.068;8.818;2024-03-06T11:42:35;102498.38;;;8.28;100.00
41967;BME280;27656;53.068;8.818;2024-03-06T11:45:17;102492.19;;;8.15;100.00
41967;BME280;27656;53.068;8.818;2024-03-06T11:48:01;102499.34;;;8.13;100.00
41967;BME280;27656;53.068;8.818;2024-03-06T11:50:29;102493.25;;;8.13;100.00
41967;BME280;27656;53.068;8.818;2024-03-06T11:52:59;102502.28;;;8.08;100.00
41967;BME280;27656;53.068;8.818;2024-03-06T11:55:25;102502.03;;;7.99;100.00
41967;BME280;27656;53.068;8.818;2024-03-06T11:57:53;102498.19;;;8.04;100.00
41967;BME280;27656;53.068;8.818;2024-03-06T12:00:23;102497.84;;;8.09;100.00
41967;BME280;27656;53.068;8.818;2024-03-06T12:02:52;102499.00;;;8.05;100.00
41967;BME280;27656;53.068;8.818;2024-03-06T12:05:19;102498.66;;;8.24;100.00
41967;BME280;27656;53.068;8.818;2024-03-06T12:07:47;102498.13;;;8.46;100.00
41967;BME280;27656;53.068;8.818;2024-03-06T12:10:14;102486.66;;;8.73;100.00
41967;BME280;27656;53.068;8.818;2024-03-06T12:12:40;102495.53;;;8.84;100.00
41967;BME280;27656;53.068;8.818;2024-03-06T12:15:11;102495.84;;;9.05;100.00
41967;BME280;27656;53.068;8.818;2024-03-06T12:17:47;102500.91;;;9.08;100.00
41967;BME280;27656;53.068;8.818;2024-03-06T12:20:16;102500.50;;;9.02;100.00
41967;BME280;27656;53.068;8.818;2024-03-06T12:22:50;102500.28;;;9.05;100.00
41967;BME280;27656;53.068;8.818;2024-03-06T12:25:22;102503.44;;;9.10;100.00
41967;BME280;27656;53.068;8.818;2024-03-06T12:27:49;102503.53;;;9.34;100.00
41967;BME280;27656;53.068;8.818;2024-03-06T12:30:20;102502.75;;;9.58;100.00
41967;BME280;27656;53.068;8.818;2024-03-06T12:33:05;102496.72;;;9.68;100.00
41967;BME280;27656;53.068;8.818;2024-03-06T12:35:32;102500.88;;;9.84;100.00
41967;BME280;27656;53.068;8.818;2024-03-06T12:37:58;102499.81;;;9.86;100.00
41967;BME280;27656;53.068;8.818;2024-03-06T12:40:25;102505.91;;;10.00;100.00
41967;BME280;27656;53.068;8.818;2024-03-06T12:42:54;102498.81;;;10.00;100.00
41967;BME280;27656;53.068;8.818;2024-03-06T12:45:21;102499.22;;;10.07;100.00
41967;BME280;27656;53.068;8.818;2024-03-06T12:47:48;102502.47;;;10.10;100.00
41967;BME280;27656;53.068;8.818;2024-03-06T12:50:16;102497.91;;;9.88;100.00
41967;BME280;27656;53.068;8.818;2024-03-06T12:52:42;102495.50;;;9.85;100.00
41967;BME280;27656;53.068;8.818;2024-03-06T12:55:12;102492.84;;;9.61;100.00
41967;BME280;27656;53.068;8.818;2024-03-06T12:57:40;102492.53;;;9.90;100.00
41967;BME280;27656;53.068;8.818;2024-03-06T13:00:07;102492.03;;;10.09;100.00